Keller, Virginia
Current Conditions -  °F | °C
As of 4:15 PM on Saturday 22 Nov 2014 (Local Time) from KMFV Reporting Station
Clear Clear  
Wind Chill: 44°   Ceiling: Unl
Heat Index: 46°   Visibility: 10mi
Dew Point: 21°   Wind: 6mph
Humidity: 37%   Direction: 220°SW
Pressure: 30.4"   Gusts: NA
Location:  37.62°N, 75.76°W
Report Text: KMFV 222115Z AUTO 22005KT 10SM CLR 08/M06 A3040 RMK AO2
Loading
Personal Weather Stations






























Interactive Weather Map New forecast layout! Learn more

10-Day Weather Forecast

Advertisements
Track Severe Weather on mobile